Time;durP1;ratioP1;P1;durP2;ratioP2;P2;SDS_P1;SDS_P2;PMS_P1;PMS_P2;Temp;Humidity;BMP_temperature;BMP_pressure;BME280_temperature;BME280_humidity;BME280_pressure;Samples;Min_cycle;Max_cycle;Signal;HPM_P1;HPM_P2
2022/03/22 00:01:06;;;;;;;;;;;7.30;99.90;;;;;;5077826;28;19932;-69
2022/03/22 00:03:33;;;;;;;;;;;7.30;99.90;;;;;;5075428;28;20021;-70
2022/03/22 00:06:02;;;;;;;;;;;7.20;99.90;;;;;;5080230;28;19924;-70
2022/03/22 00:08:29;;;;;;;;;;;7.10;99.90;;;;;;5081001;28;19932;-70
2022/03/22 00:10:56;;;;;;;;;;;7.10;99.90;;;;;;5079328;28;19932;-70
2022/03/22 00:13:22;;;;;;;;;;;7.10;99.90;;;;;;5076837;28;19931;-70
2022/03/22 00:15:50;;;;;;;;;;;7.00;99.90;;;;;;5072972;28;19946;-70
2022/03/22 00:18:19;;;;;;;;;;;7.00;99.90;;;;;;5077193;28;20344;-70
2022/03/22 00:20:45;;;;;;;;;;;7.10;99.90;;;;;;5090299;28;19924;-70
2022/03/22 00:23:14;;;;;;;;;;;7.10;99.90;;;;;;5090966;28;19931;-70
2022/03/22 00:25:40;;;;;;;;;;;7.00;99.90;;;;;;5077576;28;19936;-70
2022/03/22 00:28:07;;;;;;;;;;;7.00;99.90;;;;;;5076054;28;19931;-70
2022/03/22 00:30:35;;;;;;;;;;;7.00;99.90;;;;;;5089211;28;20027;-69
2022/03/22 00:33:03;;;;;;;;;;;7.00;99.90;;;;;;5088442;28;19924;-69
2022/03/22 00:35:30;;;;;;;;;;;7.00;99.90;;;;;;5077167;28;20391;-69
2022/03/22 00:37:58;;;;;;;;;;;6.90;99.90;;;;;;5077974;28;19969;-69
2022/03/22 00:40:27;;;;;;;;;;;6.90;99.90;;;;;;5077409;28;19924;-70
2022/03/22 00:42:54;;;;;;;;;;;6.90;99.90;;;;;;5079049;28;19930;-70
2022/03/22 00:45:22;;;;;;;;;;;6.80;99.90;;;;;;5082125;28;19932;-69
2022/03/22 00:47:49;;;;;;;;;;;6.80;99.90;;;;;;5075043;28;19925;-70
2022/03/22 00:50:17;;;;;;;;;;;6.80;99.90;;;;;;5084689;28;19924;-69
2022/03/22 00:52:44;;;;;;;;;;;6.70;99.90;;;;;;5093789;28;19936;-70
2022/03/22 00:55:12;;;;;;;;;;;6.70;99.90;;;;;;5085145;28;19932;-70
2022/03/22 00:57:40;;;;;;;;;;;6.70;99.90;;;;;;5092093;28;20390;-70
2022/03/22 01:00:09;;;;;;;;;;;6.50;99.90;;;;;;5078138;28;19978;-70
2022/03/22 01:02:37;;;;;;;;;;;6.50;99.90;;;;;;5084807;28;19931;-70
2022/03/22 01:05:06;;;;;;;;;;;6.50;99.90;;;;;;5080494;28;19931;-70
2022/03/22 01:07:33;;;;;;;;;;;6.40;99.90;;;;;;5090465;28;19931;-70
2022/03/22 01:10:00;;;;;;;;;;;6.40;99.90;;;;;;5085073;28;20428;-71
2022/03/22 01:12:27;;;;;;;;;;;6.40;99.90;;;;;;5084822;28;19935;-70
2022/03/22 01:14:55;;;;;;;;;;;6.40;99.90;;;;;;5082402;28;19928;-70
2022/03/22 01:17:22;;;;;;;;;;;6.50;99.90;;;;;;5074316;28;20007;-70
2022/03/22 01:19:49;;;;;;;;;;;6.50;99.90;;;;;;5080393;28;20007;-70
2022/03/22 01:22:16;;;;;;;;;;;6.50;99.90;;;;;;5076043;28;20057;-70
2022/03/22 01:24:43;;;;;;;;;;;6.50;99.90;;;;;;5082114;28;19931;-71
2022/03/22 01:27:10;;;;;;;;;;;6.50;99.90;;;;;;5078420;28;20287;-70
2022/03/22 01:29:37;;;;;;;;;;;6.50;99.90;;;;;;5077616;28;19946;-70
2022/03/22 01:32:06;;;;;;;;;;;6.40;99.90;;;;;;5078559;28;19948;-69
2022/03/22 01:34:32;;;;;;;;;;;6.40;99.90;;;;;;5083008;28;19931;-70
2022/03/22 01:36:59;;;;;;;;;;;6.30;99.90;;;;;;5081929;28;19925;-69
2022/03/22 01:39:25;;;;;;;;;;;6.30;99.90;;;;;;5073847;28;19924;-70
2022/03/22 01:41:52;;;;;;;;;;;6.30;99.90;;;;;;5075176;28;19925;-69
2022/03/22 01:44:19;;;;;;;;;;;6.30;99.90;;;;;;5080519;28;20018;-70
2022/03/22 01:46:46;;;;;;;;;;;6.20;99.90;;;;;;5084819;28;20364;-70
2022/03/22 01:49:14;;;;;;;;;;;6.20;99.90;;;;;;5090020;28;19930;-71
2022/03/22 01:51:42;;;;;;;;;;;6.20;99.90;;;;;;5080472;28;19986;-70
2022/03/22 01:54:10;;;;;;;;;;;6.20;99.90;;;;;;5080616;28;19928;-70
2022/03/22 01:56:37;;;;;;;;;;;6.10;99.90;;;;;;5089271;28;19924;-70
2022/03/22 01:59:04;;;;;;;;;;;6.10;99.90;;;;;;5077077;28;20395;-70
2022/03/22 02:07:01;;;;;;;;;;;6.10;99.90;;;;;;5082914;28;20319;-70
2022/03/22 02:09:29;;;;;;;;;;;6.10;99.90;;;;;;5076797;28;19930;-70
2022/03/22 02:11:56;;;;;;;;;;;6.10;99.90;;;;;;5088840;28;19928;-70
2022/03/22 02:14:22;;;;;;;;;;;6.10;99.90;;;;;;5075811;28;20303;-70
2022/03/22 02:16:49;;;;;;;;;;;6.10;99.90;;;;;;5080801;28;20298;-70
2022/03/22 02:19:17;;;;;;;;;;;6.10;99.90;;;;;;5080523;28;19931;-70
2022/03/22 02:21:44;;;;;;;;;;;6.10;99.90;;;;;;5085392;28;19930;-69
2022/03/22 02:24:12;;;;;;;;;;;6.00;99.90;;;;;;5087631;28;20298;-70
2022/03/22 02:26:39;;;;;;;;;;;6.00;99.90;;;;;;5077735;28;19931;-70
2022/03/22 02:29:06;;;;;;;;;;;5.90;99.90;;;;;;5088683;28;19928;-70
2022/03/22 02:31:33;;;;;;;;;;;5.90;99.90;;;;;;5086327;28;19924;-69
2022/03/22 02:33:59;;;;;;;;;;;6.00;99.90;;;;;;5092150;28;19931;-70
2022/03/22 02:36:26;;;;;;;;;;;6.00;99.90;;;;;;5083962;28;20004;-69
2022/03/22 02:38:53;;;;;;;;;;;6.10;99.90;;;;;;5081296;28;19924;-69
2022/03/22 02:41:22;;;;;;;;;;;6.00;99.90;;;;;;5083334;28;19932;-70
2022/03/22 02:43:50;;;;;;;;;;;6.00;99.90;;;;;;5074519;28;19924;-70
2022/03/22 02:46:16;;;;;;;;;;;6.10;99.90;;;;;;5076325;28;20045;-70
2022/03/22 02:48:43;;;;;;;;;;;6.10;99.90;;;;;;5081746;28;19931;-70
2022/03/22 02:51:10;;;;;;;;;;;6.00;99.90;;;;;;5090625;28;19924;-70
2022/03/22 02:53:37;;;;;;;;;;;6.00;99.90;;;;;;5089750;28;19930;-70
2022/03/22 02:56:04;;;;;;;;;;;6.00;99.90;;;;;;5082917;28;19925;-69
2022/03/22 02:58:33;;;;;;;;;;;6.00;99.90;;;;;;5083653;28;19924;-70
2022/03/22 03:00:59;;;;;;;;;;;6.00;99.90;;;;;;5073171;28;19967;-69
2022/03/22 03:03:27;;;;;;;;;;;5.90;99.90;;;;;;5083079;28;19928;-69
2022/03/22 03:05:54;;;;;;;;;;;5.90;99.90;;;;;;5082117;28;19950;-69
2022/03/22 03:08:21;;;;;;;;;;;5.80;99.90;;;;;;5073482;28;19932;-70
2022/03/22 03:10:48;;;;;;;;;;;5.80;99.90;;;;;;5085804;28;19925;-70
2022/03/22 03:13:15;;;;;;;;;;;5.80;99.90;;;;;;5086052;28;19931;-71
2022/03/22 03:15:44;;;;;;;;;;;5.70;99.90;;;;;;5083831;28;19924;-70
2022/03/22 03:18:12;;;;;;;;;;;5.70;99.90;;;;;;5078518;28;19931;-70
2022/03/22 03:20:39;;;;;;;;;;;5.60;99.90;;;;;;5077706;28;19935;-70
2022/03/22 03:23:06;;;;;;;;;;;5.60;99.90;;;;;;5078359;28;19928;-71
2022/03/22 03:25:35;;;;;;;;;;;5.50;99.90;;;;;;5084418;28;19932;-71
2022/03/22 03:28:01;;;;;;;;;;;5.50;99.90;;;;;;5091794;28;20019;-72
2022/03/22 03:30:29;;;;;;;;;;;5.10;99.90;;;;;;5078455;28;19946;-71
2022/03/22 03:32:57;;;;;;;;;;;5.50;99.90;;;;;;5086312;28;19928;-71
2022/03/22 03:35:24;;;;;;;;;;;5.50;99.90;;;;;;5079052;28;19924;-71
2022/03/22 03:37:51;;;;;;;;;;;5.60;99.90;;;;;;5076024;28;20025;-70
2022/03/22 03:40:17;;;;;;;;;;;5.50;99.90;;;;;;5076745;28;19925;-70
2022/03/22 03:42:44;;;;;;;;;;;5.50;99.90;;;;;;5079841;28;19924;-71
2022/03/22 03:47:56;;;;;;;;;;;5.30;99.90;;;;;;5090414;28;19982;-72
2022/03/22 03:50:24;;;;;;;;;;;5.30;99.90;;;;;;5090328;28;19928;-71
2022/03/22 03:52:50;;;;;;;;;;;5.30;99.90;;;;;;5084524;28;19932;-70
2022/03/22 03:55:17;;;;;;;;;;;5.30;99.90;;;;;;5077714;28;19928;-70
2022/03/22 03:57:44;;;;;;;;;;;5.20;99.90;;;;;;5084108;28;19931;-72
2022/03/22 04:00:12;;;;;;;;;;;5.20;99.90;;;;;;5073357;28;19940;-71
2022/03/22 04:02:40;;;;;;;;;;;5.20;99.90;;;;;;5083539;28;19924;-71
2022/03/22 04:05:08;;;;;;;;;;;5.30;99.90;;;;;;5077741;28;19925;-71
2022/03/22 04:07:36;;;;;;;;;;;5.30;99.90;;;;;;5079827;28;19947;-71
2022/03/22 04:10:03;;;;;;;;;;;5.40;99.90;;;;;;5087410;28;19928;-71
2022/03/22 04:12:31;;;;;;;;;;;5.30;99.90;;;;;;5072890;28;19934;-71
2022/03/22 04:14:57;;;;;;;;;;;5.30;99.90;;;;;;5079988;28;19975;-71
2022/03/22 04:17:24;;;;;;;;;;;5.20;99.90;;;;;;5086298;28;20409;-74
2022/03/22 04:19:51;;;;;;;;;;;5.20;99.90;;;;;;5082320;28;20466;-70
2022/03/22 04:22:18;;;;;;;;;;;5.20;99.90;;;;;;5091262;28;19924;-70
2022/03/22 04:24:46;;;;;;;;;;;5.10;99.90;;;;;;5084060;28;20391;-71
2022/03/22 04:32:44;;;;;;;;;;;5.10;99.90;;;;;;5076897;28;19931;-71
2022/03/22 04:35:11;;;;;;;;;;;5.10;99.90;;;;;;5074864;28;19924;-70
2022/03/22 04:37:38;;;;;;;;;;;5.50;99.90;;;;;;5077679;28;19924;-71
2022/03/22 04:40:08;;;;;;;;;;;5.00;99.90;;;;;;5079642;28;20397;-71
2022/03/22 04:42:34;;;;;;;;;;;5.00;99.90;;;;;;5078093;28;19950;-73
2022/03/22 04:45:01;;;;;;;;;;;5.00;99.90;;;;;;5080172;28;20302;-70
2022/03/22 04:47:29;;;;;;;;;;;5.00;99.90;;;;;;5074017;28;19928;-71
2022/03/22 04:49:55;;;;;;;;;;;5.00;99.90;;;;;;5081318;28;19928;-70
2022/03/22 04:57:52;;;;;;;;;;;4.90;99.90;;;;;;5086474;28;19946;-70
2022/03/22 05:00:19;;;;;;;;;;;4.90;99.90;;;;;;5075369;28;20325;-71
2022/03/22 05:02:47;;;;;;;;;;;4.90;99.90;;;;;;5076118;28;19929;-70
2022/03/22 05:05:15;;;;;;;;;;;4.90;99.90;;;;;;5086898;28;19973;-71
2022/03/22 05:07:42;;;;;;;;;;;4.90;99.90;;;;;;5076503;28;19925;-70
2022/03/22 05:10:11;;;;;;;;;;;4.90;99.90;;;;;;5080846;28;19925;-70
2022/03/22 05:12:40;;;;;;;;;;;4.90;99.90;;;;;;5091804;28;19924;-70
2022/03/22 05:15:09;;;;;;;;;;;5.10;99.90;;;;;;5079962;28;20436;-70
2022/03/22 05:17:39;;;;;;;;;;;4.90;99.90;;;;;;5074848;28;20027;-69
2022/03/22 05:20:07;;;;;;;;;;;5.00;99.90;;;;;;5076258;28;20409;-72
2022/03/22 05:22:35;;;;;;;;;;;5.00;99.90;;;;;;5077829;28;19946;-69
2022/03/22 05:25:02;;;;;;;;;;;4.90;99.90;;;;;;5089841;28;19924;-69
2022/03/22 05:27:30;;;;;;;;;;;4.90;99.90;;;;;;5077917;28;20015;-70
2022/03/22 05:29:57;;;;;;;;;;;4.70;99.90;;;;;;5075595;28;20328;-70
2022/03/22 05:32:24;;;;;;;;;;;4.90;99.90;;;;;;5080801;28;19938;-71
2022/03/22 05:34:50;;;;;;;;;;;4.90;99.90;;;;;;5090715;28;19955;-70
2022/03/22 05:37:17;;;;;;;;;;;4.90;99.90;;;;;;5075805;28;20027;-71
2022/03/22 05:39:44;;;;;;;;;;;4.90;99.90;;;;;;5075288;28;19931;-71
2022/03/22 05:42:10;;;;;;;;;;;4.90;99.90;;;;;;5083333;28;19924;-71
2022/03/22 05:44:38;;;;;;;;;;;5.00;99.90;;;;;;5076858;28;20306;-73
2022/03/22 05:47:06;;;;;;;;;;;5.10;99.90;;;;;;5081512;28;20361;-70
2022/03/22 05:49:33;;;;;;;;;;;5.10;99.90;;;;;;5079129;28;19924;-71
2022/03/22 05:51:59;;;;;;;;;;;5.00;99.90;;;;;;5073787;28;19924;-71
2022/03/22 05:54:26;;;;;;;;;;;5.00;99.90;;;;;;5077442;28;20273;-72
2022/03/22 05:56:53;;;;;;;;;;;5.00;99.90;;;;;;5092259;28;20430;-69
2022/03/22 05:59:19;;;;;;;;;;;5.00;99.90;;;;;;5086891;28;20007;-69
2022/03/22 06:01:48;;;;;;;;;;;5.00;99.90;;;;;;5089111;28;20017;-70
2022/03/22 06:04:14;;;;;;;;;;;5.00;99.90;;;;;;5088590;28;19969;-70
2022/03/22 06:06:41;;;;;;;;;;;5.10;99.90;;;;;;5076542;28;19928;-70
2022/03/22 06:09:08;;;;;;;;;;;5.20;99.90;;;;;;5075831;28;20218;-70
2022/03/22 06:11:35;;;;;;;;;;;5.20;99.90;;;;;;5087013;28;19928;-70
2022/03/22 06:14:03;;;;;;;;;;;5.20;99.90;;;;;;5076122;28;20383;-71
2022/03/22 06:16:30;;;;;;;;;;;5.40;99.90;;;;;;5083306;28;19924;-70
2022/03/22 06:18:58;;;;;;;;;;;5.40;99.90;;;;;;5078339;28;20443;-70
2022/03/22 06:21:24;;;;;;;;;;;5.50;99.90;;;;;;5083306;28;19924;-70
2022/03/22 06:23:52;;;;;;;;;;;5.70;99.90;;;;;;5078178;28;19930;-68
2022/03/22 06:26:18;;;;;;;;;;;5.70;99.90;;;;;;5076940;28;20315;-69
2022/03/22 06:28:45;;;;;;;;;;;5.70;99.90;;;;;;5075624;28;19930;-69
2022/03/22 06:31:12;;;;;;;;;;;5.80;99.90;;;;;;5076792;28;20289;-70
2022/03/22 06:33:39;;;;;;;;;;;5.80;99.90;;;;;;5084589;28;20041;-70
2022/03/22 06:36:08;;;;;;;;;;;5.80;99.90;;;;;;5085272;28;19924;-69
2022/03/22 06:38:35;;;;;;;;;;;5.90;99.90;;;;;;5077722;28;19925;-70
2022/03/22 06:41:02;;;;;;;;;;;6.00;99.90;;;;;;5078700;28;19984;-70
2022/03/22 06:43:29;;;;;;;;;;;6.10;99.90;;;;;;5087878;28;19959;-71
2022/03/22 06:45:55;;;;;;;;;;;6.10;99.90;;;;;;5081756;28;19924;-70
2022/03/22 06:48:23;;;;;;;;;;;6.30;99.90;;;;;;5093365;28;19967;-71
2022/03/22 06:50:51;;;;;;;;;;;6.40;99.90;;;;;;5084373;28;19925;-70
2022/03/22 06:53:19;;;;;;;;;;;6.30;99.90;;;;;;5080707;28;19930;-70
2022/03/22 06:55:46;;;;;;;;;;;6.30;99.90;;;;;;5089342;28;19924;-69
2022/03/22 06:58:14;;;;;;;;;;;6.50;99.90;;;;;;5089534;28;20023;-69
2022/03/22 07:00:41;;;;;;;;;;;6.70;99.90;;;;;;5081241;28;19932;-69
2022/03/22 07:03:08;;;;;;;;;;;6.90;99.90;;;;;;5085724;28;20010;-69
2022/03/22 07:05:35;;;;;;;;;;;7.00;99.90;;;;;;5076469;28;19936;-70
2022/03/22 07:08:04;;;;;;;;;;;7.10;99.90;;;;;;5082282;28;19928;-68
2022/03/22 07:10:32;;;;;;;;;;;7.10;99.90;;;;;;5081967;28;19928;-69
2022/03/22 07:12:59;;;;;;;;;;;7.10;99.90;;;;;;5079983;28;19967;-70
2022/03/22 07:15:30;;;;;;;;;;;7.30;99.90;;;;;;5076364;28;19928;-69
2022/03/22 07:17:58;;;;;;;;;;;7.40;99.90;;;;;;5087614;28;20019;-71
2022/03/22 07:20:25;;;;;;;;;;;7.40;99.90;;;;;;5078720;28;19929;-69
2022/03/22 07:22:51;;;;;;;;;;;7.50;99.90;;;;;;5076987;28;19944;-70
2022/03/22 07:25:18;;;;;;;;;;;7.60;99.90;;;;;;5079500;28;20007;-69
2022/03/22 07:27:46;;;;;;;;;;;7.70;99.90;;;;;;5079244;28;19924;-69
2022/03/22 07:30:14;;;;;;;;;;;7.90;99.90;;;;;;5079195;28;19973;-69
2022/03/22 07:32:41;;;;;;;;;;;8.00;99.90;;;;;;5077869;28;19936;-70
2022/03/22 07:35:08;;;;;;;;;;;8.30;99.90;;;;;;5077721;28;19998;-70
2022/03/22 07:37:35;;;;;;;;;;;8.30;99.90;;;;;;5085857;28;19974;-70
2022/03/22 07:40:02;;;;;;;;;;;8.40;99.90;;;;;;5078438;28;19935;-70
2022/03/22 07:42:29;;;;;;;;;;;8.80;99.90;;;;;;5070862;28;20290;-70
2022/03/22 07:44:59;;;;;;;;;;;9.90;99.90;;;;;;5081798;28;19924;-70
2022/03/22 07:47:25;;;;;;;;;;;10.90;99.90;;;;;;5079021;28;19960;-70
2022/03/22 07:55:20;;;;;;;;;;;12.00;99.90;;;;;;5076392;28;20344;-70
2022/03/22 07:57:47;;;;;;;;;;;12.40;99.90;;;;;;5086495;28;19932;-72
2022/03/22 08:00:17;;;;;;;;;;;12.60;99.30;;;;;;5075661;28;20011;-69
2022/03/22 08:02:53;;;;;;;;;;;12.20;99.30;;;;;;5081534;28;20395;-70
2022/03/22 08:05:20;;;;;;;;;;;12.60;98.40;;;;;;5075827;28;20018;-69
2022/03/22 08:07:47;;;;;;;;;;;12.70;97.80;;;;;;5075385;28;20350;-69
2022/03/22 08:10:14;;;;;;;;;;;12.60;97.30;;;;;;5074834;28;20374;-69
2022/03/22 08:12:41;;;;;;;;;;;12.60;97.80;;;;;;5080543;28;19924;-69
2022/03/22 08:15:08;;;;;;;;;;;13.10;97.50;;;;;;5073058;28;19928;-69
2022/03/22 08:17:36;;;;;;;;;;;13.80;95.70;;;;;;5078200;28;20021;-70
2022/03/22 08:20:04;;;;;;;;;;;14.40;94.20;;;;;;5074992;28;20060;-70
2022/03/22 08:22:32;;;;;;;;;;;14.90;93.30;;;;;;5077759;28;20289;-67
2022/03/22 08:24:58;;;;;;;;;;;15.20;91.00;;;;;;5077608;28;20370;-67
2022/03/22 08:27:25;;;;;;;;;;;14.70;91.90;;;;;;5077495;28;19931;-65
2022/03/22 08:29:52;;;;;;;;;;;15.50;89.20;;;;;;5073300;28;19925;-68
2022/03/22 08:32:18;;;;;;;;;;;16.00;88.20;;;;;;5081103;28;19963;-68
2022/03/22 08:34:47;;;;;;;;;;;16.40;83.40;;;;;;5077999;28;19976;-68
2022/03/22 08:37:13;;;;;;;;;;;17.60;80.00;;;;;;5079386;28;19946;-69
2022/03/22 08:39:40;;;;;;;;;;;17.70;74.80;;;;;;5082587;28;19935;-69
2022/03/22 08:42:07;;;;;;;;;;;18.20;68.40;;;;;;5090359;28;19924;-70
2022/03/22 08:44:33;;;;;;;;;;;18.20;66.40;;;;;;5084522;28;19979;-69
2022/03/22 08:47:01;;;;;;;;;;;19.50;61.50;;;;;;5076713;28;19928;-69
2022/03/22 08:49:27;;;;;;;;;;;20.00;56.70;;;;;;5085963;28;19924;-70
2022/03/22 08:51:56;;;;;;;;;;;20.20;52.50;;;;;;5090174;28;19928;-69
2022/03/22 08:54:22;;;;;;;;;;;18.40;57.30;;;;;;5083697;28;19930;-70
2022/03/22 08:56:49;;;;;;;;;;;19.40;54.80;;;;;;5083831;28;20440;-69
2022/03/22 08:59:15;;;;;;;;;;;20.10;53.10;;;;;;5087365;28;19928;-69
2022/03/22 09:01:42;;;;;;;;;;;21.50;48.90;;;;;;5084483;28;20387;-69
2022/03/22 09:06:53;;;;;;;;;;;21.20;46.40;;;;;;5081143;28;19939;-69
2022/03/22 09:09:21;;;;;;;;;;;21.40;44.30;;;;;;5087478;28;19924;-69
2022/03/22 09:11:48;;;;;;;;;;;20.70;44.20;;;;;;5084674;28;19931;-68
2022/03/22 09:14:15;;;;;;;;;;;21.40;43.90;;;;;;5081469;28;19924;-69
2022/03/22 09:16:41;;;;;;;;;;;22.00;41.60;;;;;;5084234;28;19932;-69
2022/03/22 09:19:08;;;;;;;;;;;21.20;40.80;;;;;;5085202;28;19924;-69
2022/03/22 09:21:35;;;;;;;;;;;22.10;41.00;;;;;;5080178;28;20023;-69
2022/03/22 09:24:03;;;;;;;;;;;22.60;38.80;;;;;;5079150;28;20474;-69
2022/03/22 09:26:31;;;;;;;;;;;22.40;38.80;;;;;;5078445;28;19932;-68
2022/03/22 09:28:58;;;;;;;;;;;23.00;36.50;;;;;;5082221;28;19930;-69
2022/03/22 09:31:25;;;;;;;;;;;22.90;32.40;;;;;;5083061;28;20007;-69
2022/03/22 09:33:52;;;;;;;;;;;23.50;30.90;;;;;;5081445;28;19930;-69
2022/03/22 09:36:19;;;;;;;;;;;23.30;30.50;;;;;;5077656;28;19924;-68
2022/03/22 09:38:46;;;;;;;;;;;23.40;30.20;;;;;;5084594;28;20245;-68
2022/03/22 09:41:14;;;;;;;;;;;22.80;27.90;;;;;;5077414;28;19932;-68
2022/03/22 09:43:44;;;;;;;;;;;22.40;28.50;;;;;;5082099;28;20021;-67
2022/03/22 09:46:11;;;;;;;;;;;22.80;29.00;;;;;;5083297;28;19928;-69
2022/03/22 09:48:38;;;;;;;;;;;20.40;32.90;;;;;;5079127;28;20011;-69
2022/03/22 09:53:49;;;;;;;;;;;19.30;36.80;;;;;;5086513;28;20279;-69
2022/03/22 09:56:16;;;;;;;;;;;20.60;36.60;;;;;;5080173;28;20526;-68
2022/03/22 09:58:44;;;;;;;;;;;21.60;33.60;;;;;;5083893;28;20285;-69
2022/03/22 10:01:11;;;;;;;;;;;22.30;32.30;;;;;;5081367;28;19928;-69
2022/03/22 10:03:37;;;;;;;;;;;22.80;31.30;;;;;;5080355;28;19924;-70
2022/03/22 10:06:05;;;;;;;;;;;21.80;32.10;;;;;;5075235;28;20014;-69
2022/03/22 10:08:31;;;;;;;;;;;22.30;30.60;;;;;;5082290;28;19924;-69
2022/03/22 10:11:00;;;;;;;;;;;21.90;30.10;;;;;;5077799;28;19924;-69
2022/03/22 10:13:28;;;;;;;;;;;21.80;30.90;;;;;;5092968;28;19947;-70
2022/03/22 10:16:02;;;;;;;;;;;21.20;32.80;;;;;;5078069;28;20409;-69
2022/03/22 10:18:29;;;;;;;;;;;21.00;32.20;;;;;;5081269;28;20414;-69
2022/03/22 10:21:01;;;;;;;;;;;20.60;32.70;;;;;;5078683;28;19924;-68
2022/03/22 10:23:28;;;;;;;;;;;19.20;36.50;;;;;;5080710;28;19932;-68
2022/03/22 10:26:02;;;;;;;;;;;17.60;39.50;;;;;;5080407;28;20246;-69
2022/03/22 10:28:29;;;;;;;;;;;16.80;42.50;;;;;;5078629;28;19932;-68
2022/03/22 10:30:56;;;;;;;;;;;16.70;42.80;;;;;;5082361;28;19954;-68
2022/03/22 10:33:24;;;;;;;;;;;17.10;41.50;;;;;;5078843;28;19928;-68
2022/03/22 10:35:51;;;;;;;;;;;17.00;41.20;;;;;;5086756;28;19970;-69
2022/03/22 10:38:19;;;;;;;;;;;16.80;42.60;;;;;;5087655;28;20370;-68
2022/03/22 10:40:48;;;;;;;;;;;16.80;41.90;;;;;;5086042;28;20360;-68
2022/03/22 10:43:18;;;;;;;;;;;16.90;42.60;;;;;;5085353;28;20015;-68
2022/03/22 10:45:45;;;;;;;;;;;17.10;42.20;;;;;;5080444;28;19943;-69
2022/03/22 10:48:15;;;;;;;;;;;17.20;41.10;;;;;;5078220;28;19936;-69
2022/03/22 10:50:44;;;;;;;;;;;17.20;41.30;;;;;;5077739;28;20013;-69
2022/03/22 10:53:14;;;;;;;;;;;17.00;41.70;;;;;;5079153;28;20375;-71
2022/03/22 10:55:40;;;;;;;;;;;16.80;41.80;;;;;;5088718;28;19924;-70
2022/03/22 10:58:07;;;;;;;;;;;16.90;42.30;;;;;;5075125;28;19925;-70
2022/03/22 11:00:36;;;;;;;;;;;17.00;42.40;;;;;;5080590;28;19930;-69
2022/03/22 11:03:05;;;;;;;;;;;17.10;40.50;;;;;;5078715;28;19983;-70
2022/03/22 11:05:33;;;;;;;;;;;17.20;41.30;;;;;;5081883;28;20194;-70
2022/03/22 11:08:02;;;;;;;;;;;17.50;39.40;;;;;;5080537;28;19931;-69
2022/03/22 11:10:30;;;;;;;;;;;17.30;39.50;;;;;;5080896;28;19981;-69
2022/03/22 11:12:57;;;;;;;;;;;17.40;38.70;;;;;;5078490;28;19938;-69
2022/03/22 11:15:24;;;;;;;;;;;17.60;38.20;;;;;;5082251;28;19928;-69
2022/03/22 11:17:52;;;;;;;;;;;17.80;38.00;;;;;;5083093;28;20023;-69
2022/03/22 11:20:19;;;;;;;;;;;17.90;37.20;;;;;;5076575;28;19928;-69
2022/03/22 11:22:48;;;;;;;;;;;17.90;35.30;;;;;;5078030;28;19928;-70
2022/03/22 11:25:18;;;;;;;;;;;17.90;35.40;;;;;;5073463;28;19993;-69
2022/03/22 11:27:56;;;;;;;;;;;18.00;32.30;;;;;;5079853;28;19931;-70
2022/03/22 11:30:23;;;;;;;;;;;18.30;29.70;;;;;;5083943;28;19935;-69
2022/03/22 11:35:44;;;;;;;;;;;18.40;32.70;;;;;;5082716;28;19942;-70
2022/03/22 11:38:14;;;;;;;;;;;18.30;31.80;;;;;;5082489;28;19932;-69
2022/03/22 11:43:42;;;;;;;;;;;18.30;32.30;;;;;;5056737;28;20018;-70
2022/03/22 11:46:09;;;;;;;;;;;18.60;31.10;;;;;;5083554;28;19924;-69
2022/03/22 11:48:38;;;;;;;;;;;18.30;27.70;;;;;;5083799;28;19924;-68
2022/03/22 11:51:06;;;;;;;;;;;18.20;29.20;;;;;;5075278;28;19928;-68
2022/03/22 11:53:41;;;;;;;;;;;18.10;28.30;;;;;;5080487;28;19924;-69
2022/03/22 11:56:09;;;;;;;;;;;18.70;27.70;;;;;;5076766;28;20007;-69
2022/03/22 11:58:36;;;;;;;;;;;18.90;28.00;;;;;;5083705;28;19925;-69
2022/03/22 12:01:03;;;;;;;;;;;19.00;28.80;;;;;;5073644;28;19931;-69
2022/03/22 12:03:31;;;;;;;;;;;18.90;29.10;;;;;;5077746;28;19928;-69
2022/03/22 12:05:59;;;;;;;;;;;18.80;28.50;;;;;;5079418;28;19978;-70
2022/03/22 12:08:26;;;;;;;;;;;18.50;29.20;;;;;;5076309;28;19931;-67
2022/03/22 12:10:54;;;;;;;;;;;18.70;29.00;;;;;;5082785;28;19931;-67
2022/03/22 12:13:23;;;;;;;;;;;18.90;27.70;;;;;;5083871;28;19932;-68
2022/03/22 12:15:56;;;;;;;;;;;19.00;28.00;;;;;;5078702;28;20027;-66
2022/03/22 12:18:27;;;;;;;;;;;19.10;27.90;;;;;;5086201;28;19940;-66
2022/03/22 12:20:56;;;;;;;;;;;19.10;27.10;;;;;;5080527;28;19924;-68
2022/03/22 12:23:22;;;;;;;;;;;19.00;26.90;;;;;;5082463;28;19932;-69
2022/03/22 12:25:51;;;;;;;;;;;19.00;27.10;;;;;;5080235;28;19935;-69
2022/03/22 12:28:18;;;;;;;;;;;19.20;27.30;;;;;;5086619;28;19946;-69
2022/03/22 12:30:47;;;;;;;;;;;19.20;27.30;;;;;;5086611;28;19932;-69
2022/03/22 12:33:15;;;;;;;;;;;19.30;26.30;;;;;;5081205;28;20039;-68
2022/03/22 12:35:42;;;;;;;;;;;19.00;26.10;;;;;;5083588;28;20275;-69
2022/03/22 12:38:09;;;;;;;;;;;18.80;26.70;;;;;;5088445;28;20303;-69
2022/03/22 12:40:37;;;;;;;;;;;19.10;26.20;;;;;;5083248;28;19934;-70
2022/03/22 12:43:05;;;;;;;;;;;19.30;26.00;;;;;;5083646;28;21911;-70
2022/03/22 12:45:32;;;;;;;;;;;19.50;25.10;;;;;;5087106;28;19932;-70
2022/03/22 12:48:01;;;;;;;;;;;19.40;25.30;;;;;;5088702;28;19928;-70
2022/03/22 12:50:28;;;;;;;;;;;19.20;25.20;;;;;;5087336;28;19934;-70
2022/03/22 12:52:55;;;;;;;;;;;19.30;25.90;;;;;;5078550;28;19958;-69
2022/03/22 12:55:23;;;;;;;;;;;19.40;25.50;;;;;;5073696;28;19924;-69
2022/03/22 12:57:56;;;;;;;;;;;19.30;24.50;;;;;;5082308;28;20386;-69
2022/03/22 13:00:27;;;;;;;;;;;19.20;24.90;;;;;;5080924;28;19924;-69
2022/03/22 13:02:54;;;;;;;;;;;19.10;24.80;;;;;;5075382;28;20586;-69
2022/03/22 13:05:26;;;;;;;;;;;19.10;25.20;;;;;;5080756;28;20481;-70
2022/03/22 13:07:53;;;;;;;;;;;19.00;25.10;;;;;;5081785;28;19931;-69
2022/03/22 13:13:04;;;;;;;;;;;19.10;24.80;;;;;;5082390;28;20062;-71
2022/03/22 13:15:30;;;;;;;;;;;19.20;25.40;;;;;;5083160;28;20019;-71
2022/03/22 13:17:57;;;;;;;;;;;19.60;25.70;;;;;;5085463;28;20011;-71
2022/03/22 13:20:26;;;;;;;;;;;19.60;24.70;;;;;;5082915;28;19924;-70
2022/03/22 13:22:54;;;;;;;;;;;19.90;24.70;;;;;;5086964;28;19932;-68
2022/03/22 13:25:25;;;;;;;;;;;20.00;23.60;;;;;;5080802;28;19932;-68
2022/03/22 13:27:56;;;;;;;;;;;20.10;23.90;;;;;;5084332;28;20014;-68
2022/03/22 13:30:23;;;;;;;;;;;20.10;22.80;;;;;;5075663;28;20009;-69
2022/03/22 13:32:50;;;;;;;;;;;20.20;22.80;;;;;;5079158;28;20036;-71
2022/03/22 13:35:18;;;;;;;;;;;20.00;23.10;;;;;;5089058;28;19934;-71
2022/03/22 13:37:48;;;;;;;;;;;19.60;23.90;;;;;;5085275;28;20026;-69
2022/03/22 13:40:14;;;;;;;;;;;19.60;23.40;;;;;;5081072;28;20452;-69
2022/03/22 13:42:54;;;;;;;;;;;19.90;23.60;;;;;;5083914;28;19930;-71
2022/03/22 13:45:22;;;;;;;;;;;19.90;23.50;;;;;;5077926;28;19928;-69
2022/03/22 13:47:51;;;;;;;;;;;20.10;22.70;;;;;;5084214;28;19935;-69
2022/03/22 13:50:19;;;;;;;;;;;20.10;22.40;;;;;;5079190;28;19924;-70
2022/03/22 13:52:58;;;;;;;;;;;20.10;22.70;;;;;;5078526;28;20015;-70
2022/03/22 13:55:26;;;;;;;;;;;19.80;23.00;;;;;;5081149;28;19924;-69
2022/03/22 13:57:54;;;;;;;;;;;19.90;23.00;;;;;;5079028;28;22799;-70
2022/03/22 14:00:21;;;;;;;;;;;20.10;22.90;;;;;;5081480;28;19930;-71
2022/03/22 14:02:48;;;;;;;;;;;20.10;23.20;;;;;;5079512;28;20020;-71
2022/03/22 14:05:15;;;;;;;;;;;20.00;23.00;;;;;;5080851;28;19925;-69
2022/03/22 14:07:51;;;;;;;;;;;19.40;23.10;;;;;;5080566;28;19924;-69
2022/03/22 14:10:18;;;;;;;;;;;19.80;23.70;;;;;;5079356;28;20035;-69
2022/03/22 14:12:45;;;;;;;;;;;20.10;23.40;;;;;;5081260;28;19928;-69
2022/03/22 14:15:12;;;;;;;;;;;20.30;23.70;;;;;;5078688;28;19946;-68
2022/03/22 14:17:39;;;;;;;;;;;20.00;24.10;;;;;;5081565;28;20019;-67
2022/03/22 14:20:06;;;;;;;;;;;20.00;24.60;;;;;;5078963;28;19939;-67
2022/03/22 14:22:33;;;;;;;;;;;20.10;23.60;;;;;;5084183;28;19924;-68
2022/03/22 14:25:01;;;;;;;;;;;19.50;23.90;;;;;;5080672;28;19925;-70
2022/03/22 14:27:30;;;;;;;;;;;19.50;24.60;;;;;;5084053;28;19925;-71
2022/03/22 14:29:58;;;;;;;;;;;19.80;23.70;;;;;;5081724;28;19931;-70
2022/03/22 14:32:24;;;;;;;;;;;19.90;23.20;;;;;;5080259;28;19928;-70
2022/03/22 14:37:35;;;;;;;;;;;19.70;23.70;;;;;;5086740;28;20459;-69
2022/03/22 14:40:04;;;;;;;;;;;19.50;23.70;;;;;;5079940;28;19932;-69
2022/03/22 14:42:32;;;;;;;;;;;19.60;23.30;;;;;;5088983;28;19930;-69
2022/03/22 14:45:03;;;;;;;;;;;19.60;23.90;;;;;;5081140;28;20366;-71
2022/03/22 14:47:32;;;;;;;;;;;19.70;24.00;;;;;;5087767;28;19966;-70
2022/03/22 14:49:59;;;;;;;;;;;19.80;23.70;;;;;;5077838;28;19932;-70
2022/03/22 14:55:11;;;;;;;;;;;20.00;24.60;;;;;;5083360;28;20393;-70
2022/03/22 15:00:22;;;;;;;;;;;19.60;23.30;;;;;;5082873;28;20636;-69
2022/03/22 15:02:49;;;;;;;;;;;19.50;24.00;;;;;;5080650;28;20018;-70
2022/03/22 15:07:57;;;;;;;;;;;19.60;24.10;;;;;;5076771;28;19931;-70
2022/03/22 15:10:26;;;;;;;;;;;19.80;23.70;;;;;;5081698;28;19932;-69
2022/03/22 15:12:53;;;;;;;;;;;19.50;23.50;;;;;;5085200;28;19935;-70
2022/03/22 15:15:19;;;;;;;;;;;19.70;23.80;;;;;;5079708;28;19979;-69